Time;durP1;ratioP1;P1;durP2;ratioP2;P2;SDS_P1;SDS_P2;PMS_P1;PMS_P2;Temp;Humidity;BMP_temperature;BMP_pressure;BME280_temperature;BME280_humidity;BME280_pressure;Samples;Min_cycle;Max_cycle;Signal;HPM_P1;HPM_P2
2022/06/06 00:00:52;;;;;;;3.33;3.03;;;;;;;;;;5051446;28;20446;-77
2022/06/06 00:03:20;;;;;;;3.20;3.00;;;;;;;;;;5051236;28;20442;-78
2022/06/06 00:05:48;;;;;;;2.90;2.70;;;;;;;;;;5050824;28;20481;-78
2022/06/06 00:08:15;;;;;;;3.23;2.90;;;;;;;;;;5051044;28;20437;-78
2022/06/06 00:10:43;;;;;;;3.27;3.07;;;;;;;;;;5051056;28;20462;-77
2022/06/06 00:13:13;;;;;;;3.20;3.00;;;;;;;;;;5050695;28;20735;-78
2022/06/06 00:15:40;;;;;;;3.83;3.53;;;;;;;;;;5050635;28;20438;-78
2022/06/06 00:18:07;;;;;;;3.30;3.10;;;;;;;;;;5050608;28;20475;-77
2022/06/06 00:20:35;;;;;;;3.17;2.90;;;;;;;;;;5050683;28;20465;-76
2022/06/06 00:23:02;;;;;;;4.10;3.77;;;;;;;;;;5050359;28;20485;-77
2022/06/06 00:25:29;;;;;;;3.37;3.07;;;;;;;;;;5050468;28;20477;-78
2022/06/06 00:27:56;;;;;;;3.40;3.20;;;;;;;;;;5050564;28;20473;-77
2022/06/06 00:30:25;;;;;;;3.67;3.37;;;;;;;;;;5050396;28;20461;-78
2022/06/06 00:35:36;;;;;;;3.60;3.40;;;;;;;;;;5050455;28;20416;-77
2022/06/06 00:38:03;;;;;;;3.87;3.57;;;;;;;;;;5050517;28;20458;-77
2022/06/06 00:40:31;;;;;;;3.97;3.67;;;;;;;;;;5051630;28;20466;-78
2022/06/06 00:42:58;;;;;;;3.90;3.60;;;;;;;;;;5053550;28;20449;-78
2022/06/06 00:45:34;;;;;;;3.97;3.67;;;;;;;;;;5053791;28;20512;-76
2022/06/06 00:48:06;;;;;;;3.77;3.47;;;;;;;;;;5053776;28;20479;-77
2022/06/06 00:50:36;;;;;;;4.57;4.17;;;;;;;;;;5053696;28;20473;-77
2022/06/06 00:53:04;;;;;;;3.70;3.40;;;;;;;;;;5053834;28;20492;-78
2022/06/06 00:55:33;;;;;;;4.03;3.80;;;;;;;;;;5053708;28;20866;-77
2022/06/06 00:58:01;;;;;;;3.70;3.43;;;;;;;;;;5053558;28;20441;-79
2022/06/06 01:00:28;;;;;;;3.80;3.50;;;;;;;;;;5053213;28;20527;-77
2022/06/06 01:02:58;;;;;;;4.30;3.90;;;;;;;;;;5053181;28;20509;-78
2022/06/06 01:05:25;;;;;;;4.10;3.80;;;;;;;;;;5053126;28;21004;-77
2022/06/06 01:07:52;;;;;;;3.60;3.40;;;;;;;;;;5053077;28;20445;-78
2022/06/06 01:10:21;;;;;;;4.03;3.83;;;;;;;;;;5053406;28;20465;-77
2022/06/06 01:12:50;;;;;;;3.93;3.47;;;;;;;;;;5052843;28;20449;-78
2022/06/06 01:15:18;;;;;;;4.17;3.87;;;;;;;;;;5053117;28;20475;-78
2022/06/06 01:17:49;;;;;;;4.00;3.70;;;;;;;;;;5053407;28;20441;-77
2022/06/06 01:20:23;;;;;;;4.87;4.47;;;;;;;;;;5053221;28;20563;-77
2022/06/06 01:23:01;;;;;;;4.20;3.90;;;;;;;;;;5053222;28;20500;-78
2022/06/06 01:25:35;;;;;;;6.20;3.90;;;;;;;;;;5053093;28;20795;-76
2022/06/06 01:28:04;;;;;;;4.23;3.80;;;;;;;;;;5053315;28;20446;-76
2022/06/06 01:30:34;;;;;;;4.40;4.10;;;;;;;;;;5052891;28;20470;-77
2022/06/06 01:33:02;;;;;;;4.53;4.10;;;;;;;;;;5052318;28;20913;-77
2022/06/06 01:35:30;;;;;;;4.23;3.93;;;;;;;;;;5052847;28;20482;-76
2022/06/06 01:37:57;;;;;;;4.60;4.23;;;;;;;;;;5052462;28;20446;-78
2022/06/06 01:40:26;;;;;;;4.67;4.07;;;;;;;;;;5052631;28;20473;-77
2022/06/06 01:42:56;;;;;;;4.30;4.00;;;;;;;;;;5052720;28;20464;-76
2022/06/06 01:45:28;;;;;;;4.70;4.00;;;;;;;;;;5052584;28;20572;-77
2022/06/06 01:48:01;;;;;;;5.23;3.97;;;;;;;;;;5052753;28;20924;-76
2022/06/06 01:50:28;;;;;;;4.53;4.13;;;;;;;;;;5052634;28;20461;-78
2022/06/06 01:52:57;;;;;;;4.60;4.27;;;;;;;;;;5051556;28;20798;-77
2022/06/06 01:55:25;;;;;;;4.53;4.10;;;;;;;;;;5052577;28;20441;-76
2022/06/06 01:57:53;;;;;;;4.07;3.77;;;;;;;;;;5053008;28;20456;-77
2022/06/06 02:00:21;;;;;;;3.97;3.67;;;;;;;;;;5052717;28;20513;-78
2022/06/06 02:02:48;;;;;;;4.30;4.00;;;;;;;;;;5051817;28;20811;-77
2022/06/06 02:05:17;;;;;;;4.13;3.83;;;;;;;;;;5052256;28;20528;-77
2022/06/06 02:07:45;;;;;;;4.07;3.77;;;;;;;;;;5052131;28;20453;-77
2022/06/06 02:10:13;;;;;;;4.63;4.23;;;;;;;;;;5051851;28;20861;-78
2022/06/06 02:12:40;;;;;;;4.63;4.33;;;;;;;;;;5051757;28;20445;-77
2022/06/06 02:15:09;;;;;;;6.13;5.23;;;;;;;;;;5051964;28;20442;-77
2022/06/06 02:17:36;;;;;;;4.83;4.43;;;;;;;;;;5051777;28;20446;-78
2022/06/06 02:20:04;;;;;;;4.77;4.37;;;;;;;;;;5051838;28;20465;-77
2022/06/06 02:22:32;;;;;;;4.20;3.90;;;;;;;;;;5051834;28;20445;-79
2022/06/06 02:24:59;;;;;;;5.20;4.20;;;;;;;;;;5051744;28;20473;-77
2022/06/06 02:27:27;;;;;;;4.40;4.10;;;;;;;;;;5051706;28;20441;-77
2022/06/06 02:29:54;;;;;;;4.70;4.40;;;;;;;;;;5051524;28;20550;-77
2022/06/06 02:32:21;;;;;;;4.60;4.30;;;;;;;;;;5051762;28;20449;-77
2022/06/06 02:34:48;;;;;;;4.27;3.97;;;;;;;;;;5051403;28;20445;-77
2022/06/06 02:37:15;;;;;;;4.63;4.23;;;;;;;;;;5051414;28;21005;-77
2022/06/06 02:39:44;;;;;;;4.67;4.27;;;;;;;;;;5051323;28;20980;-76
2022/06/06 02:42:11;;;;;;;4.37;4.07;;;;;;;;;;5051876;28;20445;-77
2022/06/06 02:44:38;;;;;;;6.23;4.20;;;;;;;;;;5050696;28;20453;-78
2022/06/06 02:47:05;;;;;;;5.10;4.47;;;;;;;;;;5051340;28;20477;-78
2022/06/06 02:49:33;;;;;;;5.53;4.33;;;;;;;;;;5051413;28;20624;-77
2022/06/06 02:52:00;;;;;;;4.83;4.50;;;;;;;;;;5051295;28;20525;-76
2022/06/06 02:54:27;;;;;;;5.30;4.87;;;;;;;;;;5050808;28;20499;-79
2022/06/06 02:56:56;;;;;;;5.20;4.90;;;;;;;;;;5050837;28;20430;-78
2022/06/06 02:59:25;;;;;;;5.20;4.80;;;;;;;;;;5050768;28;20543;-77
2022/06/06 03:01:52;;;;;;;5.33;4.70;;;;;;;;;;5051076;28;20471;-78
2022/06/06 03:04:19;;;;;;;5.53;4.80;;;;;;;;;;5050702;28;20445;-77
2022/06/06 03:06:55;;;;;;;6.17;4.60;;;;;;;;;;5051050;28;20560;-77
2022/06/06 03:09:26;;;;;;;4.93;4.63;;;;;;;;;;5050808;28;20593;-78
2022/06/06 03:12:00;;;;;;;4.97;4.57;;;;;;;;;;5051123;28;20524;-77
2022/06/06 03:14:40;;;;;;;5.40;4.90;;;;;;;;;;5050869;28;20491;-78
2022/06/06 03:22:52;;;;;;;5.57;5.07;;;;;;;;;;5050656;28;20488;-78
2022/06/06 03:25:22;;;;;;;6.33;5.47;;;;;;;;;;5050830;28;20492;-78
2022/06/06 03:27:54;;;;;;;5.30;4.80;;;;;;;;;;5051093;28;20446;-77
2022/06/06 03:30:25;;;;;;;5.03;4.63;;;;;;;;;;5050781;28;20470;-78
2022/06/06 03:33:00;;;;;;;4.80;4.40;;;;;;;;;;5050801;28;20450;-77
2022/06/06 03:35:35;;;;;;;9.73;5.13;;;;;;;;;;5051069;28;20524;-78
2022/06/06 03:38:05;;;;;;;4.97;4.57;;;;;;;;;;5050839;28;20508;-77
2022/06/06 03:40:37;;;;;;;5.00;4.60;;;;;;;;;;5050858;28;20548;-77
2022/06/06 03:43:08;;;;;;;5.37;4.70;;;;;;;;;;5050259;28;20442;-77
2022/06/06 03:45:39;;;;;;;4.80;4.50;;;;;;;;;;5050550;28;20539;-77
2022/06/06 03:48:13;;;;;;;5.27;4.87;;;;;;;;;;5050961;28;20528;-78
2022/06/06 03:50:43;;;;;;;6.73;5.17;;;;;;;;;;5050877;28;20477;-76
2022/06/06 03:53:12;;;;;;;5.70;5.20;;;;;;;;;;5050392;28;21028;-78
2022/06/06 03:55:46;;;;;;;5.70;5.20;;;;;;;;;;5050519;28;20858;-77
2022/06/06 03:58:17;;;;;;;5.93;5.33;;;;;;;;;;5051030;28;20858;-78
2022/06/06 04:00:46;;;;;;;5.00;4.60;;;;;;;;;;5051403;28;20835;-76
2022/06/06 04:03:13;;;;;;;5.47;4.97;;;;;;;;;;5050252;28;20503;-78
2022/06/06 04:05:41;;;;;;;6.33;5.70;;;;;;;;;;5050930;28;20484;-78
2022/06/06 04:08:09;;;;;;;5.93;5.43;;;;;;;;;;5048245;28;20450;-77
2022/06/06 04:10:42;;;;;;;6.00;5.50;;;;;;;;;;5047657;28;20457;-77
2022/06/06 04:13:15;;;;;;;4.93;4.53;;;;;;;;;;5050084;28;20540;-76
2022/06/06 04:15:51;;;;;;;5.80;5.40;;;;;;;;;;5052238;28;20433;-78
2022/06/06 04:18:26;;;;;;;5.43;5.03;;;;;;;;;;5054049;28;20441;-77
2022/06/06 04:20:58;;;;;;;5.50;4.87;;;;;;;;;;5051509;28;20453;-76
2022/06/06 04:23:39;;;;;;;5.17;4.53;;;;;;;;;;5051392;28;20461;-77
2022/06/06 04:26:12;;;;;;;7.70;4.90;;;;;;;;;;5052979;28;20554;-78
2022/06/06 04:28:45;;;;;;;5.60;5.10;;;;;;;;;;5053586;28;20445;-77
2022/06/06 04:31:14;;;;;;;4.20;4.00;;;;;;;;;;5051338;28;20499;-77
2022/06/06 04:33:46;;;;;;;5.77;5.17;;;;;;;;;;5053368;28;20507;-78
2022/06/06 04:36:16;;;;;;;5.50;5.00;;;;;;;;;;5053879;28;20437;-77
2022/06/06 04:38:48;;;;;;;5.47;5.07;;;;;;;;;;5054001;28;20613;-78
2022/06/06 04:41:20;;;;;;;4.77;4.47;;;;;;;;;;5053823;28;20560;-78
2022/06/06 04:43:50;;;;;;;4.80;4.50;;;;;;;;;;5053341;28;20926;-76
2022/06/06 04:46:23;;;;;;;5.30;4.90;;;;;;;;;;5054052;28;20507;-78
2022/06/06 04:48:52;;;;;;;5.37;4.97;;;;;;;;;;5053780;28;20487;-77
2022/06/06 04:51:20;;;;;;;4.93;4.63;;;;;;;;;;5054017;28;20453;-77
2022/06/06 04:53:49;;;;;;;4.83;4.53;;;;;;;;;;5053351;28;20479;-78
2022/06/06 04:56:18;;;;;;;4.90;4.43;;;;;;;;;;5053506;28;20953;-77
2022/06/06 04:58:47;;;;;;;4.73;4.43;;;;;;;;;;5053224;28;21000;-77
2022/06/06 05:01:15;;;;;;;5.03;4.73;;;;;;;;;;5053375;28;20499;-76
2022/06/06 05:03:44;;;;;;;4.70;4.40;;;;;;;;;;5053161;28;20449;-78
2022/06/06 05:06:20;;;;;;;5.07;4.77;;;;;;;;;;5053067;28;20488;-79
2022/06/06 05:08:56;;;;;;;4.97;4.50;;;;;;;;;;5052961;28;20820;-77
2022/06/06 05:11:30;;;;;;;4.67;4.37;;;;;;;;;;5053340;28;20893;-77
2022/06/06 05:14:04;;;;;;;4.23;4.00;;;;;;;;;;5052894;28;20496;-79
2022/06/06 05:16:43;;;;;;;5.53;4.33;;;;;;;;;;5053627;28;20446;-78
2022/06/06 05:19:29;;;;;;;4.63;4.33;;;;;;;;;;5053340;28;20598;-79
2022/06/06 05:22:06;;;;;;;4.13;3.77;;;;;;;;;;5053472;28;20575;-77
2022/06/06 05:24:46;;;;;;;4.90;4.60;;;;;;;;;;5052984;28;20500;-81
2022/06/06 05:27:20;;;;;;;6.50;5.00;;;;;;;;;;5052870;28;20578;-77
2022/06/06 05:29:59;;;;;;;4.67;4.27;;;;;;;;;;5053462;28;20464;-76
2022/06/06 05:32:35;;;;;;;4.90;4.50;;;;;;;;;;5053131;28;20445;-77
2022/06/06 05:35:05;;;;;;;4.17;3.87;;;;;;;;;;5052800;28;20456;-77
2022/06/06 05:37:37;;;;;;;4.57;4.20;;;;;;;;;;5052737;28;20442;-77
2022/06/06 05:40:13;;;;;;;4.43;4.13;;;;;;;;;;5053097;28;20522;-78
2022/06/06 05:42:47;;;;;;;4.17;3.80;;;;;;;;;;5052677;28;20441;-77
2022/06/06 05:45:20;;;;;;;5.60;5.20;;;;;;;;;;5052502;28;20453;-76
2022/06/06 05:47:51;;;;;;;4.73;4.33;;;;;;;;;;5052485;28;20480;-77
2022/06/06 05:50:31;;;;;;;4.50;4.10;;;;;;;;;;5052722;28;20473;-77
2022/06/06 05:53:08;;;;;;;5.10;4.60;;;;;;;;;;5052384;28;20446;-78
2022/06/06 05:55:43;;;;;;;3.93;3.63;;;;;;;;;;5052591;28;20955;-77
2022/06/06 05:58:26;;;;;;;4.17;3.90;;;;;;;;;;5052386;28;20445;-77
2022/06/06 06:01:00;;;;;;;4.53;4.13;;;;;;;;;;5052332;28;20991;-77
2022/06/06 06:03:51;;;;;;;4.53;3.90;;;;;;;;;;5052201;28;20529;-77
2022/06/06 06:06:21;;;;;;;4.37;4.10;;;;;;;;;;5032804;28;20473;-78
2022/06/06 06:09:00;;;;;;;4.50;4.10;;;;;;;;;;5052169;28;20458;-78
2022/06/06 06:11:32;;;;;;;4.67;4.37;;;;;;;;;;5052690;28;20491;-77
2022/06/06 06:14:06;;;;;;;4.53;4.23;;;;;;;;;;5051922;28;20445;-77
2022/06/06 06:16:34;;;;;;;5.43;4.13;;;;;;;;;;5052100;28;20475;-78
2022/06/06 06:19:06;;;;;;;4.60;4.33;;;;;;;;;;5051844;28;20516;-77
2022/06/06 06:21:36;;;;;;;5.50;5.10;;;;;;;;;;5053112;28;20445;-79
2022/06/06 06:24:08;;;;;;;4.27;4.07;;;;;;;;;;5051977;28;20530;-78
2022/06/06 06:26:36;;;;;;;5.73;4.67;;;;;;;;;;5052462;28;20568;-78
2022/06/06 06:29:04;;;;;;;5.23;4.83;;;;;;;;;;5052173;28;20474;-79
2022/06/06 06:31:38;;;;;;;5.50;5.03;;;;;;;;;;5053261;28;20442;-77
2022/06/06 06:34:14;;;;;;;4.40;4.10;;;;;;;;;;5054260;28;20449;-78
2022/06/06 06:36:44;;;;;;;4.80;4.40;;;;;;;;;;5055506;28;20445;-79
2022/06/06 06:39:29;;;;;;;4.63;4.23;;;;;;;;;;5054462;28;20458;-76
2022/06/06 06:42:02;;;;;;;5.30;4.80;;;;;;;;;;5054230;28;20906;-77
2022/06/06 06:44:32;;;;;;;5.10;4.70;;;;;;;;;;5054601;28;20453;-77
2022/06/06 06:47:00;;;;;;;5.10;4.80;;;;;;;;;;5051845;28;20568;-78
2022/06/06 06:49:33;;;;;;;4.53;4.20;;;;;;;;;;5051944;28;20469;-77
2022/06/06 06:52:04;;;;;;;5.20;4.70;;;;;;;;;;5051577;28;20515;-78
2022/06/06 06:54:41;;;;;;;3.93;3.63;;;;;;;;;;5051320;28;20479;-79
2022/06/06 06:57:13;;;;;;;3.80;3.60;;;;;;;;;;5052107;28;20510;-77
2022/06/06 06:59:49;;;;;;;5.00;4.60;;;;;;;;;;5051342;28;20574;-79
2022/06/06 07:11:02;;;;;;;4.67;4.27;;;;;;;;;;5051687;28;20576;-79
2022/06/06 07:13:37;;;;;;;4.83;3.90;;;;;;;;;;5052253;28;20506;-78
2022/06/06 07:16:07;;;;;;;4.27;3.97;;;;;;;;;;5053677;28;20494;-78
2022/06/06 07:18:34;;;;;;;4.67;4.20;;;;;;;;;;5051233;28;20445;-78
2022/06/06 07:21:02;;;;;;;4.80;4.37;;;;;;;;;;5051030;28;20484;-78
2022/06/06 07:23:30;;;;;;;7.13;4.80;;;;;;;;;;5050741;28;20445;-78
2022/06/06 07:25:59;;;;;;;5.13;4.73;;;;;;;;;;5050980;28;20446;-78
2022/06/06 07:28:26;;;;;;;4.80;4.47;;;;;;;;;;5050962;28;20530;-77
2022/06/06 07:30:59;;;;;;;4.97;4.47;;;;;;;;;;5050810;28;20813;-78
2022/06/06 07:33:37;;;;;;;4.50;4.20;;;;;;;;;;5050753;28;20445;-78
2022/06/06 07:36:10;;;;;;;4.63;4.20;;;;;;;;;;5050771;28;20491;-77
2022/06/06 07:38:42;;;;;;;5.57;4.47;;;;;;;;;;5051417;28;20441;-77
2022/06/06 07:41:15;;;;;;;4.67;4.33;;;;;;;;;;5051501;28;20456;-78
2022/06/06 07:43:50;;;;;;;5.17;4.87;;;;;;;;;;5051167;28;20437;-77
2022/06/06 07:46:22;;;;;;;4.03;3.73;;;;;;;;;;5068370;28;20420;-80
2022/06/06 07:48:51;;;;;;;4.03;3.83;;;;;;;;;;5067890;28;20518;-77
2022/06/06 07:51:22;;;;;;;4.00;3.80;;;;;;;;;;5061357;28;20438;-78
2022/06/06 07:53:55;;;;;;;4.83;4.43;;;;;;;;;;5057623;28;20541;-77
2022/06/06 07:56:26;;;;;;;5.43;5.03;;;;;;;;;;5057034;28;20475;-77
2022/06/06 07:58:56;;;;;;;6.50;5.90;;;;;;;;;;5056853;28;20464;-76
2022/06/06 08:01:28;;;;;;;4.30;4.00;;;;;;;;;;5056609;28;20437;-77
2022/06/06 08:04:01;;;;;;;4.00;3.70;;;;;;;;;;5069426;28;20445;-77
2022/06/06 08:06:32;;;;;;;4.00;3.70;;;;;;;;;;5069150;28;20511;-77
2022/06/06 08:09:17;;;;;;;3.63;3.43;;;;;;;;;;5067860;28;20492;-77
2022/06/06 08:11:49;;;;;;;3.13;3.03;;;;;;;;;;5071028;28;21097;-77
2022/06/06 08:14:22;;;;;;;6.00;5.33;;;;;;;;;;5068489;28;20909;-77
2022/06/06 08:16:57;;;;;;;4.07;3.77;;;;;;;;;;5069347;28;20475;-77
2022/06/06 08:19:45;;;;;;;4.00;3.70;;;;;;;;;;5057881;28;20540;-77
2022/06/06 08:22:12;;;;;;;4.47;4.17;;;;;;;;;;5021814;28;20945;-77
2022/06/06 08:24:41;;;;;;;4.40;3.90;;;;;;;;;;5054993;28;20491;-77
2022/06/06 08:27:11;;;;;;;3.50;3.40;;;;;;;;;;5055036;28;20550;-77
2022/06/06 08:29:40;;;;;;;4.47;4.20;;;;;;;;;;5055170;28;20462;-77
2022/06/06 08:32:09;;;;;;;3.63;3.33;;;;;;;;;;5055025;28;20853;-77
2022/06/06 08:34:37;;;;;;;3.13;2.93;;;;;;;;;;5054183;28;20446;-78
2022/06/06 08:37:13;;;;;;;3.40;3.03;;;;;;;;;;5054623;28;20571;-79
2022/06/06 08:39:44;;;;;;;3.70;3.50;;;;;;;;;;5054281;28;20877;-77
2022/06/06 08:42:19;;;;;;;3.00;2.90;;;;;;;;;;5054362;28;20495;-79
2022/06/06 08:44:52;;;;;;;3.73;3.30;;;;;;;;;;5054267;28;20547;-78
2022/06/06 08:47:28;;;;;;;3.23;3.03;;;;;;;;;;5054693;28;20473;-77
2022/06/06 08:52:58;;;;;;;2.83;2.43;;;;;;;;;;5054116;28;20504;-78
2022/06/06 08:55:34;;;;;;;2.80;2.60;;;;;;;;;;5053599;28;20449;-77
2022/06/06 08:58:10;;;;;;;2.80;2.53;;;;;;;;;;5054028;28;21023;-79
2022/06/06 09:00:43;;;;;;;2.53;2.33;;;;;;;;;;5053633;28;20470;-77
2022/06/06 09:03:44;;;;;;;2.90;2.70;;;;;;;;;;5053486;28;20452;-78
2022/06/06 09:06:29;;;;;;;2.53;2.43;;;;;;;;;;5053792;28;20498;-78
2022/06/06 09:09:11;;;;;;;3.20;2.90;;;;;;;;;;5053309;28;20481;-77
2022/06/06 09:12:03;;;;;;;2.43;2.30;;;;;;;;;;5053379;28;20446;-78
2022/06/06 09:14:45;;;;;;;2.70;2.60;;;;;;;;;;5053149;28;20445;-78
2022/06/06 09:17:27;;;;;;;2.73;2.53;;;;;;;;;;5053382;28;20433;-78
2022/06/06 09:20:13;;;;;;;2.43;2.27;;;;;;;;;;5053152;28;20449;-78
2022/06/06 09:23:04;;;;;;;2.40;2.20;;;;;;;;;;5053503;28;20441;-78
2022/06/06 09:25:35;;;;;;;3.10;2.80;;;;;;;;;;5053726;28;20548;-79
2022/06/06 09:28:17;;;;;;;2.53;2.37;;;;;;;;;;5054172;28;20891;-78
2022/06/06 09:31:13;;;;;;;2.70;2.60;;;;;;;;;;5053153;28;20881;-78
2022/06/06 09:34:03;;;;;;;2.47;2.27;;;;;;;;;;5052989;28;20441;-77
2022/06/06 09:36:39;;;;;;;2.53;2.43;;;;;;;;;;5053348;28;20448;-78
2022/06/06 09:39:09;;;;;;;2.47;2.37;;;;;;;;;;5053282;28;20553;-79
2022/06/06 09:41:38;;;;;;;2.80;2.60;;;;;;;;;;5055075;28;20433;-78
2022/06/06 09:44:10;;;;;;;2.47;2.20;;;;;;;;;;5052645;28;20446;-77
2022/06/06 09:46:55;;;;;;;2.53;2.33;;;;;;;;;;5052524;28;20870;-78
2022/06/06 09:49:41;;;;;;;2.13;2.03;;;;;;;;;;5012703;28;20489;-78
2022/06/06 09:52:26;;;;;;;2.20;2.10;;;;;;;;;;5052702;28;20537;-78
2022/06/06 10:01:12;;;;;;;2.30;2.20;;;;;;;;;;5054239;28;20424;-79
2022/06/06 10:03:54;;;;;;;2.30;2.20;;;;;;;;;;5052333;28;20455;-77
2022/06/06 10:06:30;;;;;;;2.10;1.90;;;;;;;;;;5052675;28;20479;-78
2022/06/06 10:09:14;;;;;;;2.83;2.43;;;;;;;;;;5052211;28;20878;-77
2022/06/06 10:11:55;;;;;;;2.47;2.10;;;;;;;;;;5051730;28;20437;-78
2022/06/06 10:14:35;;;;;;;5.23;2.47;;;;;;;;;;5050923;28;20921;-78
2022/06/06 10:17:07;;;;;;;1.63;1.53;;;;;;;;;;5052383;28;20524;-78
2022/06/06 10:19:40;;;;;;;2.90;2.00;;;;;;;;;;5052184;28;20576;-77
2022/06/06 10:22:17;;;;;;;2.10;1.90;;;;;;;;;;5052240;28;20522;-78
2022/06/06 10:24:53;;;;;;;3.33;2.03;;;;;;;;;;5051992;28;20967;-78
2022/06/06 10:27:28;;;;;;;2.07;1.93;;;;;;;;;;5052256;28;20448;-78
2022/06/06 10:30:13;;;;;;;2.27;2.07;;;;;;;;;;5051993;28;20460;-78
2022/06/06 10:32:48;;;;;;;2.57;2.17;;;;;;;;;;5051977;28;20441;-78
2022/06/06 10:35:19;;;;;;;2.50;2.30;;;;;;;;;;5051433;28;20817;-77
2022/06/06 10:37:50;;;;;;;3.20;2.40;;;;;;;;;;5052338;28;20995;-77
2022/06/06 10:40:45;;;;;;;2.97;2.20;;;;;;;;;;5051978;28;20973;-77
2022/06/06 10:43:24;;;;;;;2.50;2.30;;;;;;;;;;5051441;28;20442;-78
2022/06/06 10:45:57;;;;;;;1.83;1.73;;;;;;;;;;5051293;28;20453;-78
2022/06/06 10:48:31;;;;;;;4.40;2.57;;;;;;;;;;5052433;28;20488;-78
2022/06/06 10:51:43;;;;;;;3.80;2.40;;;;;;;;;;5052807;28;20505;-77
2022/06/06 10:54:20;;;;;;;2.50;2.37;;;;;;;;;;5052126;28;20437;-77
2022/06/06 10:57:01;;;;;;;3.23;2.93;;;;;;;;;;5052887;28;20430;-78
2022/06/06 10:59:52;;;;;;;2.20;1.97;;;;;;;;;;5052463;28;20864;-78
2022/06/06 11:02:37;;;;;;;2.20;2.10;;;;;;;;;;5032738;28;20523;-78
2022/06/06 11:05:21;;;;;;;2.13;1.93;;;;;;;;;;5048588;28;20503;-79
2022/06/06 11:08:02;;;;;;;2.20;2.10;;;;;;;;;;5032463;28;20573;-78
2022/06/06 11:10:50;;;;;;;2.07;1.97;;;;;;;;;;5044118;28;20465;-78
2022/06/06 11:13:30;;;;;;;2.33;2.13;;;;;;;;;;5052276;28;20430;-78
2022/06/06 11:16:11;;;;;;;2.27;2.17;;;;;;;;;;5040999;28;20446;-78
2022/06/06 11:18:50;;;;;;;2.13;1.97;;;;;;;;;;5051102;28;20445;-78
2022/06/06 11:21:34;;;;;;;3.17;2.40;;;;;;;;;;5051401;28;20433;-77
2022/06/06 11:24:08;;;;;;;2.40;2.30;;;;;;;;;;5050955;28;20898;-77
2022/06/06 11:26:46;;;;;;;2.30;2.20;;;;;;;;;;5051235;28;20844;-78
2022/06/06 11:29:26;;;;;;;2.50;2.30;;;;;;;;;;5051732;28;20481;-77
2022/06/06 11:31:55;;;;;;;2.47;2.23;;;;;;;;;;5051991;28;20426;-78
2022/06/06 11:34:42;;;;;;;2.63;2.43;;;;;;;;;;5051537;28;20471;-77
2022/06/06 11:37:28;;;;;;;2.27;2.17;;;;;;;;;;5051575;28;20426;-78
2022/06/06 11:40:22;;;;;;;3.17;2.10;;;;;;;;;;5051777;28;20518;-78
2022/06/06 11:43:13;;;;;;;2.00;1.90;;;;;;;;;;5051499;28;20430;-77
2022/06/06 11:45:52;;;;;;;2.63;2.47;;;;;;;;;;5051120;28;20937;-77
2022/06/06 11:48:31;;;;;;;2.83;2.37;;;;;;;;;;5051399;28;20457;-77
2022/06/06 11:51:11;;;;;;;2.07;1.87;;;;;;;;;;5051094;28;20499;-77
2022/06/06 11:54:12;;;;;;;2.40;2.20;;;;;;;;;;5051324;28;20437;-78
2022/06/06 11:56:59;;;;;;;2.27;2.10;;;;;;;;;;5051016;28;20458;-78
2022/06/06 11:59:48;;;;;;;2.60;2.50;;;;;;;;;;5041634;28;20465;-78
2022/06/06 12:02:30;;;;;;;2.47;2.37;;;;;;;;;;5000878;28;20955;-78
2022/06/06 12:05:15;;;;;;;3.40;2.10;;;;;;;;;;5032575;28;20867;-79
2022/06/06 12:08:03;;;;;;;2.43;2.20;;;;;;;;;;5036679;28;20442;-79
2022/06/06 12:10:35;;;;;;;2.63;2.40;;;;;;;;;;5051401;28;20469;-78
2022/06/06 12:13:14;;;;;;;2.27;2.17;;;;;;;;;;5051990;28;20430;-78
2022/06/06 12:15:51;;;;;;;2.37;2.27;;;;;;;;;;5051472;28;20428;-79
2022/06/06 12:18:25;;;;;;;2.20;2.10;;;;;;;;;;5053070;28;20424;-79
2022/06/06 12:21:07;;;;;;;2.00;1.90;;;;;;;;;;5052419;28;20425;-78
2022/06/06 12:23:42;;;;;;;2.37;2.20;;;;;;;;;;5007732;28;20453;-79
2022/06/06 12:26:21;;;;;;;2.80;2.30;;;;;;;;;;5050932;28;20421;-78
2022/06/06 12:29:04;;;;;;;2.00;1.90;;;;;;;;;;5050732;28;21039;-78
2022/06/06 12:31:38;;;;;;;1.70;1.70;;;;;;;;;;5050498;28;21003;-78
2022/06/06 12:34:10;;;;;;;2.30;2.07;;;;;;;;;;5050767;28;20460;-78
2022/06/06 12:36:43;;;;;;;1.93;1.83;;;;;;;;;;5052556;28;20484;-78
2022/06/06 12:39:15;;;;;;;2.10;2.00;;;;;;;;;;5054521;28;20461;-78
2022/06/06 12:41:51;;;;;;;2.57;2.37;;;;;;;;;;5054866;28;20495;-78
2022/06/06 12:44:27;;;;;;;2.30;2.10;;;;;;;;;;5055375;28;20811;-77
2022/06/06 12:47:01;;;;;;;2.10;2.00;;;;;;;;;;5056636;28;20524;-77
2022/06/06 12:49:48;;;;;;;2.60;2.40;;;;;;;;;;5056090;28;20489;-78
2022/06/06 12:52:24;;;;;;;2.20;2.00;;;;;;;;;;5064318;28;20453;-80
2022/06/06 12:55:30;;;;;;;2.30;1.87;;;;;;;;;;5061743;28;20503;-80
2022/06/06 12:58:07;;;;;;;2.10;1.90;;;;;;;;;;5057089;28;20450;-79
2022/06/06 13:03:24;;;;;;;3.40;2.30;;;;;;;;;;5054502;28;20405;-78
2022/06/06 13:05:56;;;;;;;2.53;2.10;;;;;;;;;;5055470;28;20464;-78
2022/06/06 13:08:32;;;;;;;2.27;2.07;;;;;;;;;;5054134;28;20840;-78
2022/06/06 13:11:14;;;;;;;2.30;2.10;;;;;;;;;;5054796;28;20433;-78
2022/06/06 13:13:49;;;;;;;2.07;1.83;;;;;;;;;;5054201;28;20445;-79
2022/06/06 13:16:25;;;;;;;3.03;2.60;;;;;;;;;;5054484;28;20460;-78
2022/06/06 13:19:01;;;;;;;2.13;2.03;;;;;;;;;;5052832;28;20465;-78
2022/06/06 13:21:34;;;;;;;2.50;2.40;;;;;;;;;;5045053;28;20449;-77
2022/06/06 13:24:28;;;;;;;2.93;2.73;;;;;;;;;;5053424;28;20921;-79
2022/06/06 13:26:56;;;;;;;4.93;3.80;;;;;;;;;;5007676;28;20465;-79
2022/06/06 13:29:29;;;;;;;2.97;2.77;;;;;;;;;;5053779;28;20485;-79
2022/06/06 13:32:02;;;;;;;2.80;2.60;;;;;;;;;;5053574;28;20452;-79
2022/06/06 13:34:33;;;;;;;2.90;2.70;;;;;;;;;;5055608;28;20434;-78
2022/06/06 13:37:05;;;;;;;2.30;2.20;;;;;;;;;;5058700;28;20457;-80
2022/06/06 13:39:39;;;;;;;6.30;2.50;;;;;;;;;;5059746;28;20462;-79
2022/06/06 13:42:10;;;;;;;2.33;2.20;;;;;;;;;;5061205;28;20426;-78
2022/06/06 13:44:55;;;;;;;2.27;2.17;;;;;;;;;;5058994;28;20450;-79
2022/06/06 13:47:28;;;;;;;2.40;2.20;;;;;;;;;;5059084;28;20529;-78
2022/06/06 13:50:03;;;;;;;2.70;2.50;;;;;;;;;;5053736;28;20485;-78
2022/06/06 13:52:46;;;;;;;2.40;2.30;;;;;;;;;;5053354;28;20451;-77
2022/06/06 13:55:33;;;;;;;1.97;1.87;;;;;;;;;;5052859;28;20462;-78
2022/06/06 13:58:09;;;;;;;2.23;2.10;;;;;;;;;;5047124;28;20511;-78
2022/06/06 14:00:42;;;;;;;4.90;3.30;;;;;;;;;;5052442;28;20461;-78
2022/06/06 14:03:18;;;;;;;3.60;3.30;;;;;;;;;;5052102;28;20426;-79
2022/06/06 14:06:09;;;;;;;3.60;3.30;;;;;;;;;;5052171;28;20421;-78
2022/06/06 14:08:50;;;;;;;2.40;2.30;;;;;;;;;;5052845;28;20461;-79
2022/06/06 14:11:25;;;;;;;2.50;2.30;;;;;;;;;;5052827;28;20450;-79
2022/06/06 14:13:55;;;;;;;4.70;2.50;;;;;;;;;;5052135;28;20475;-79
2022/06/06 14:16:27;;;;;;;2.67;2.50;;;;;;;;;;5051823;28;20453;-78
2022/06/06 14:18:56;;;;;;;4.07;2.40;;;;;;;;;;5066149;28;20511;-78
2022/06/06 14:21:25;;;;;;;2.80;2.50;;;;;;;;;;5071289;28;20951;-78
2022/06/06 14:23:52;;;;;;;3.27;2.77;;;;;;;;;;5071373;28;20502;-78
2022/06/06 14:26:21;;;;;;;4.30;2.60;;;;;;;;;;5071895;28;20437;-78
2022/06/06 14:29:02;;;;;;;3.50;3.20;;;;;;;;;;5071753;28;21067;-78
2022/06/06 14:31:36;;;;;;;3.77;3.37;;;;;;;;;;5071934;28;20451;-78
2022/06/06 14:34:17;;;;;;;2.87;2.67;;;;;;;;;;5071440;28;20436;-78
2022/06/06 14:36:46;;;;;;;3.57;2.87;;;;;;;;;;5072725;28;20428;-79
2022/06/06 14:39:20;;;;;;;2.97;2.67;;;;;;;;;;5072010;28;20845;-78
2022/06/06 14:41:48;;;;;;;2.80;2.60;;;;;;;;;;5072806;28;20424;-79
2022/06/06 14:44:16;;;;;;;2.90;2.13;;;;;;;;;;5072681;28;20486;-81
2022/06/06 14:46:46;;;;;;;2.67;2.50;;;;;;;;;;5071355;28;20437;-78
2022/06/06 14:49:23;;;;;;;2.70;2.53;;;;;;;;;;5071089;28;21019;-79
2022/06/06 14:51:50;;;;;;;5.67;2.73;;;;;;;;;;5071389;28;20486;-79
2022/06/06 14:54:19;;;;;;;3.33;3.03;;;;;;;;;;5071507;28;20444;-79
2022/06/06 14:56:47;;;;;;;2.60;2.50;;;;;;;;;;5071697;28;20449;-78
2022/06/06 14:59:15;;;;;;;3.20;3.00;;;;;;;;;;5070934;28;21025;-79
2022/06/06 15:01:43;;;;;;;3.20;2.90;;;;;;;;;;5071448;28;20437;-79
2022/06/06 15:04:26;;;;;;;2.57;2.47;;;;;;;;;;5071635;28;20444;-79
2022/06/06 15:06:55;;;;;;;2.63;2.43;;;;;;;;;;5067553;28;20454;-77
2022/06/06 15:09:28;;;;;;;3.00;2.80;;;;;;;;;;5052232;28;20481;-78
2022/06/06 15:11:55;;;;;;;2.70;2.50;;;;;;;;;;5054055;28;20450;-77
2022/06/06 15:14:26;;;;;;;3.00;2.67;;;;;;;;;;5053425;28;20467;-77
2022/06/06 15:16:54;;;;;;;2.37;2.23;;;;;;;;;;5054032;28;20453;-78
2022/06/06 15:19:23;;;;;;;4.53;2.10;;;;;;;;;;5050962;28;20977;-79
2022/06/06 15:21:51;;;;;;;3.00;2.70;;;;;;;;;;5050608;28;20441;-78
2022/06/06 15:24:19;;;;;;;6.37;5.37;;;;;;;;;;5050314;28;21083;-78
2022/06/06 15:26:49;;;;;;;3.17;2.97;;;;;;;;;;5050738;28;20491;-78
2022/06/06 15:29:19;;;;;;;3.43;3.10;;;;;;;;;;5050426;28;20543;-79
2022/06/06 15:31:51;;;;;;;3.30;3.00;;;;;;;;;;5050360;28;20964;-78
2022/06/06 15:34:26;;;;;;;3.03;2.70;;;;;;;;;;5050660;28;20521;-79
2022/06/06 15:37:00;;;;;;;2.63;2.50;;;;;;;;;;5050348;28;20787;-80
2022/06/06 15:39:35;;;;;;;3.27;3.00;;;;;;;;;;5050760;28;21091;-79
2022/06/06 15:42:06;;;;;;;4.63;3.07;;;;;;;;;;5051390;28;20451;-79
2022/06/06 15:44:41;;;;;;;4.13;3.40;;;;;;;;;;5051090;28;20457;-79
2022/06/06 15:47:13;;;;;;;4.17;3.60;;;;;;;;;;5050883;28;20429;-78
2022/06/06 15:49:54;;;;;;;3.60;3.30;;;;;;;;;;5050603;28;20561;-78
2022/06/06 15:52:37;;;;;;;4.53;3.27;;;;;;;;;;5059579;28;20437;-77